Time;durP1;ratioP1;P1;durP2;ratioP2;P2;SDS_P1;SDS_P2;PMS_P1;PMS_P2;Temp;Humidity;BMP_temperature;BMP_pressure;BME280_temperature;BME280_humidity;BME280_pressure;Samples;Min_cycle;Max_cycle;Signal;HPM_P1;HPM_P2
2024/01/28 00:02:13;;;;;;;21.00;6.50;;;;;;;2.20;83.85;102072.86;112930;242;38738;-69
2024/01/28 00:04:47;;;;;;;20.50;5.20;;;;;;;2.19;83.92;102072.67;112846;243;38244;-69
2024/01/28 00:07:21;;;;;;;15.20;5.30;;;;;;;2.18;83.93;102076.63;112562;242;154744;-70
2024/01/28 00:09:55;;;;;;;16.10;6.00;;;;;;;2.20;84.05;102082.85;112855;243;38756;-70
2024/01/28 00:12:29;;;;;;;16.70;5.80;;;;;;;2.21;84.03;102086.85;112603;241;154105;-70
2024/01/28 00:15:03;;;;;;;16.50;6.00;;;;;;;2.25;84.13;102084.36;112783;243;38411;-69
2024/01/28 00:17:37;;;;;;;24.30;7.00;;;;;;;2.23;83.89;102081.73;112750;240;155509;-69
2024/01/28 00:20:13;;;;;;;25.10;7.60;;;;;;;2.18;83.61;102091.08;112934;242;38383;-69
2024/01/28 00:22:47;;;;;;;19.30;6.00;;;;;;;2.11;83.59;102092.27;112811;243;38351;-68
2024/01/28 00:25:21;;;;;;;19.40;5.40;;;;;;;2.00;83.34;102098.56;112540;241;153820;-68
2024/01/28 00:27:55;;;;;;;20.80;6.30;;;;;;;1.90;83.19;102098.98;112846;243;38856;-69
2024/01/28 00:30:32;;;;;;;16.30;5.90;;;;;;;1.80;83.02;102111.98;112703;241;155624;-69
2024/01/28 00:33:07;;;;;;;15.50;5.70;;;;;;;1.71;83.09;102111.92;112821;243;38270;-70
2024/01/28 00:35:41;;;;;;;23.40;6.30;;;;;;;1.64;83.20;102115.52;112494;241;154079;-70
2024/01/28 00:38:16;;;;;;;17.70;6.00;;;;;;;1.55;83.42;102118.73;112710;243;39040;-70
2024/01/28 00:40:50;;;;;;;24.20;8.80;;;;;;;1.51;83.71;102121.55;112867;243;40204;-69
2024/01/28 00:43:24;;;;;;;26.00;11.00;;;;;;;1.43;83.76;102129.58;112678;241;153816;-69
2024/01/28 00:45:58;;;;;;;31.30;12.00;;;;;;;1.38;83.83;102135.98;112873;243;38271;-69
2024/01/28 00:48:32;;;;;;;32.80;14.10;;;;;;;1.34;83.92;102136.71;112614;241;154810;-69
2024/01/28 00:51:06;;;;;;;22.10;10.80;;;;;;;1.31;83.84;102140.23;112794;243;39231;-69
2024/01/28 00:53:40;;;;;;;25.00;7.90;;;;;;;1.27;83.89;102139.59;112757;240;154098;-69
2024/01/28 00:56:16;;;;;;;27.00;9.40;;;;;;;1.20;83.90;102145.10;112908;242;39332;-69
2024/01/28 00:58:50;;;;;;;20.10;9.20;;;;;;;1.11;83.80;102148.95;112865;243;40198;-70
2024/01/28 01:01:24;;;;;;;21.00;7.80;;;;;;;1.03;84.12;102150.95;112540;241;154501;-69
2024/01/28 01:03:58;;;;;;;21.40;9.70;;;;;;;0.95;84.13;102150.55;112845;243;40076;-70
2024/01/28 01:06:32;;;;;;;23.50;9.90;;;;;;;0.91;84.41;102147.34;112706;241;155490;-70
2024/01/28 01:09:07;;;;;;;20.80;7.90;;;;;;;0.93;84.69;102148.06;112869;243;39735;-70
2024/01/28 01:11:43;;;;;;;19.40;6.80;;;;;;;0.94;84.95;102152.92;112733;241;154003;-70
2024/01/28 01:14:17;;;;;;;21.90;7.00;;;;;;;0.93;85.17;102145.69;112707;243;38994;-69
2024/01/28 01:16:50;;;;;;;19.60;6.80;;;;;;;0.94;85.38;102152.24;112858;243;39502;-69
2024/01/28 01:19:24;;;;;;;21.00;6.70;;;;;;;0.90;85.33;102151.94;112659;241;153837;-69
2024/01/28 01:22:01;;;;;;;17.80;6.30;;;;;;;0.85;85.31;102151.79;112858;243;38471;-69
2024/01/28 01:24:35;;;;;;;22.50;7.10;;;;;;;0.79;85.14;102155.21;112806;243;38434;-70
2024/01/28 01:27:11;;;;;;;18.40;6.60;;;;;;;0.75;85.18;102154.94;112854;243;38673;-70
2024/01/28 01:29:44;;;;;;;19.50;6.40;;;;;;;0.72;85.03;102146.23;112709;243;154026;-69
2024/01/28 01:32:18;;;;;;;19.50;7.10;;;;;;;0.66;85.11;102145.87;112703;243;40339;-70
2024/01/28 01:34:52;;;;;;;21.80;6.70;;;;;;;0.59;85.12;102144.64;112839;243;39469;-69
2024/01/28 01:37:26;;;;;;;20.20;6.20;;;;;;;0.49;84.84;102141.73;112658;241;154095;-69
2024/01/28 01:40:00;;;;;;;20.80;6.60;;;;;;;0.38;84.88;102144.33;112868;243;39762;-69
2024/01/28 01:42:34;;;;;;;17.40;6.60;;;;;;;0.32;84.89;102140.69;112676;243;38160;-69
2024/01/28 01:45:10;;;;;;;16.30;6.80;;;;;;;0.28;84.93;102143.96;112882;243;38279;-69
2024/01/28 01:47:44;;;;;;;26.80;9.60;;;;;;;0.24;85.30;102151.06;112727;241;155048;-69
2024/01/28 01:50:18;;;;;;;18.50;6.50;;;;;;;0.18;85.26;102156.03;112667;243;39129;-68
2024/01/28 01:52:52;;;;;;;16.90;6.70;;;;;;;0.12;85.49;102158.73;112856;243;38690;-68
2024/01/28 01:55:26;;;;;;;15.80;6.10;;;;;;;0.09;85.74;102160.69;112680;241;154651;-70
2024/01/28 01:58:00;;;;;;;23.50;6.70;;;;;;;0.08;86.09;102162.01;112852;243;39412;-70
2024/01/28 02:00:34;;;;;;;18.20;5.90;;;;;;;0.09;86.44;102163.63;112658;241;155497;-70
2024/01/28 02:03:08;;;;;;;18.20;6.60;;;;;;;0.15;86.75;102162.95;112759;243;38757;-70
2024/01/28 02:05:42;;;;;;;17.90;6.80;;;;;;;0.22;86.94;102165.06;112719;240;155139;-69
2024/01/28 02:08:17;;;;;;;22.30;7.70;;;;;;;0.28;87.17;102163.90;112878;242;38551;-69
2024/01/28 02:10:51;;;;;;;18.10;7.10;;;;;;;0.36;87.52;102160.89;112865;243;38995;-69
2024/01/28 02:13:25;;;;;;;21.40;7.60;;;;;;;0.42;87.69;102159.89;112554;241;153918;-69
2024/01/28 02:16:00;;;;;;;22.40;7.20;;;;;;;0.47;87.87;102157.14;112713;243;172558;-69
2024/01/28 02:18:34;;;;;;;18.40;6.60;;;;;;;0.50;87.75;102161.03;112634;241;154564;-69
2024/01/28 02:21:08;;;;;;;19.80;7.20;;;;;;;0.55;87.73;102162.52;112833;243;38291;-69
2024/01/28 02:23:41;;;;;;;19.70;7.00;;;;;;;0.59;87.74;102159.91;112722;241;155722;-70
2024/01/28 02:26:15;;;;;;;18.50;5.80;;;;;;;0.66;87.94;102159.77;112673;243;38807;-70
2024/01/28 02:28:50;;;;;;;18.80;6.40;;;;;;;0.72;87.98;102158.44;112875;243;38414;-70
2024/01/28 02:31:24;;;;;;;19.50;6.80;;;;;;;0.80;88.19;102157.80;112752;242;154891;-69
2024/01/28 02:33:58;;;;;;;25.40;7.90;;;;;;;0.82;88.23;102159.59;112892;242;38811;-68
2024/01/28 02:36:32;;;;;;;18.30;6.90;;;;;;;0.85;88.25;102154.17;112521;242;154937;-69
2024/01/28 02:39:06;;;;;;;20.10;5.60;;;;;;;0.87;88.31;102159.92;112790;243;38300;-69
2024/01/28 02:41:40;;;;;;;16.50;5.50;;;;;;;0.92;88.42;102164.36;112675;243;154865;-69
2024/01/28 02:44:14;;;;;;;17.80;7.10;;;;;;;0.97;88.49;102169.18;112756;243;40051;-69
2024/01/28 02:46:48;;;;;;;18.70;6.30;;;;;;;1.04;88.34;102178.65;112854;243;39575;-69
2024/01/28 02:49:23;;;;;;;16.00;6.70;;;;;;;1.12;88.82;102186.10;112595;241;153990;-69
2024/01/28 02:51:57;;;;;;;19.50;6.80;;;;;;;1.23;89.22;102188.15;112813;243;40030;-70
2024/01/28 02:54:31;;;;;;;17.50;5.60;;;;;;;1.29;89.13;102200.38;112714;243;154725;-70
2024/01/28 02:57:05;;;;;;;14.60;5.10;;;;;;;1.31;88.72;102197.33;112824;243;38303;-70
2024/01/28 02:59:39;;;;;;;15.10;6.00;;;;;;;1.33;88.68;102204.05;112715;241;154791;-69
2024/01/28 03:02:13;;;;;;;17.60;6.50;;;;;;;1.37;88.76;102204.39;112684;243;38458;-69
2024/01/28 03:04:47;;;;;;;17.70;5.10;;;;;;;1.42;88.71;102210.02;112866;243;39768;-69
2024/01/28 03:07:21;;;;;;;17.60;5.50;;;;;;;1.45;88.44;102214.59;112754;240;154933;-69
2024/01/28 03:09:55;;;;;;;16.90;5.50;;;;;;;1.47;88.46;102219.44;112841;242;38936;-70
2024/01/28 03:12:28;;;;;;;15.20;5.60;;;;;;;1.49;88.60;102223.65;112638;241;153687;-70
2024/01/28 03:15:03;;;;;;;18.30;6.00;;;;;;;1.54;88.84;102226.55;112678;243;172573;-69
2024/01/28 03:17:38;;;;;;;17.00;6.20;;;;;;;1.56;88.90;102233.98;112709;241;154140;-69
2024/01/28 03:20:14;;;;;;;16.50;5.90;;;;;;;1.59;88.79;102239.05;112779;243;38747;-69
2024/01/28 03:22:48;;;;;;;13.90;4.70;;;;;;;1.63;88.73;102239.36;112826;243;38483;-69
2024/01/28 03:25:22;;;;;;;15.70;5.10;;;;;;;1.65;88.73;102231.33;112540;241;154396;-69
2024/01/28 03:27:56;;;;;;;18.40;5.80;;;;;;;1.72;88.83;102228.08;112848;243;38374;-69
2024/01/28 03:30:30;;;;;;;15.10;5.00;;;;;;;1.77;88.84;102227.88;112705;240;155899;-69
2024/01/28 03:33:04;;;;;;;19.10;5.90;;;;;;;1.80;88.92;102230.55;112864;242;38243;-69
2024/01/28 03:35:39;;;;;;;15.00;5.50;;;;;;;1.83;88.94;102224.60;112751;241;154215;-69
2024/01/28 03:38:13;;;;;;;13.00;5.10;;;;;;;1.84;89.04;102231.34;112676;243;38252;-69
2024/01/28 03:40:47;;;;;;;16.60;5.10;;;;;;;1.86;88.91;102229.83;112844;243;38424;-70
2024/01/28 03:43:21;;;;;;;15.20;5.00;;;;;;;1.89;88.85;102234.40;112676;241;154486;-70
2024/01/28 03:45:55;;;;;;;16.50;4.90;;;;;;;1.93;88.94;102239.00;112129;243;926485;-70
2024/01/28 03:48:29;;;;;;;14.80;5.90;;;;;;;1.98;88.93;102245.15;112656;241;153913;-70
2024/01/28 03:51:02;;;;;;;11.90;5.80;;;;;;;2.01;89.03;102242.48;112753;243;38545;-69
2024/01/28 03:53:36;;;;;;;17.80;6.80;;;;;;;2.05;89.19;102239.31;112748;241;154117;-69
2024/01/28 03:56:11;;;;;;;14.10;4.60;;;;;;;2.06;89.01;102238.64;112794;243;38348;-70
2024/01/28 03:58:45;;;;;;;14.00;4.90;;;;;;;2.06;89.01;102237.30;112862;243;38328;-70
2024/01/28 04:01:19;;;;;;;11.50;4.90;;;;;;;2.09;88.97;102239.77;112484;241;175076;-69
2024/01/28 04:03:57;;;;;;;14.20;5.10;;;;;;;2.13;89.09;102241.23;112861;243;38413;-69
2024/01/28 04:06:31;;;;;;;16.40;5.50;;;;;;;2.20;89.11;102248.30;112728;240;155294;-69
2024/01/28 04:09:05;;;;;;;13.90;5.10;;;;;;;2.25;89.18;102244.48;112898;242;38264;-69
2024/01/28 04:11:39;;;;;;;12.50;4.80;;;;;;;2.28;89.18;102246.30;112861;243;38235;-69
2024/01/28 04:14:33;;;;;;;15.00;6.10;;;;;;;2.30;89.15;102246.33;112851;243;38435;-69
2024/01/28 04:17:07;;;;;;;18.80;4.90;;;;;;;2.29;89.18;102248.04;112723;243;172476;-69
2024/01/28 04:19:41;;;;;;;11.30;4.40;;;;;;;2.30;89.30;102253.23;112543;241;154790;-69
2024/01/28 04:22:15;;;;;;;13.60;4.90;;;;;;;2.34;89.16;102265.91;112822;243;39596;-69
2024/01/28 04:24:49;;;;;;;13.00;4.70;;;;;;;2.37;89.22;102266.16;112751;240;155110;-69
2024/01/28 04:27:23;;;;;;;11.70;4.70;;;;;;;2.41;89.31;102266.79;112835;242;38268;-69
2024/01/28 04:29:56;;;;;;;11.50;5.20;;;;;;;2.45;89.37;102277.55;112842;243;38352;-69
2024/01/28 04:32:30;;;;;;;14.40;6.10;;;;;;;2.47;89.43;102286.91;112852;243;38704;-69
2024/01/28 04:35:04;;;;;;;13.00;5.00;;;;;;;2.47;89.49;102290.89;112844;243;40236;-69
2024/01/28 04:37:38;;;;;;;15.50;5.30;;;;;;;2.48;89.41;102293.34;112616;241;154668;-69
2024/01/28 04:40:14;;;;;;;10.60;4.40;;;;;;;2.52;89.43;102292.55;112843;243;40012;-70
2024/01/28 04:42:48;;;;;;;14.00;5.60;;;;;;;2.55;89.36;102294.54;112835;243;38260;-70
2024/01/28 04:45:22;;;;;;;14.20;5.50;;;;;;;2.59;89.55;102296.02;112843;243;38772;-70
2024/01/28 04:47:56;;;;;;;11.50;4.40;;;;;;;2.64;89.81;102298.36;112703;240;153943;-70
2024/01/28 04:50:30;;;;;;;10.80;4.20;;;;;;;2.69;89.82;102300.21;112856;242;39581;-69
2024/01/28 04:53:04;;;;;;;10.80;3.70;;;;;;;2.69;89.66;102305.73;112815;243;38519;-69
2024/01/28 04:55:38;;;;;;;8.70;3.70;;;;;;;2.70;89.69;102311.60;112592;241;156600;-69
2024/01/28 04:58:11;;;;;;;10.60;3.60;;;;;;;2.74;89.83;102316.22;112820;243;39453;-69
2024/01/28 05:00:46;;;;;;;8.60;3.60;;;;;;;2.79;89.93;102324.11;112741;240;156112;-69
2024/01/28 05:03:19;;;;;;;11.00;4.10;;;;;;;2.83;89.68;102323.52;112883;242;40239;-69
2024/01/28 05:05:53;;;;;;;12.30;4.20;;;;;;;2.85;89.68;102325.97;112584;243;334219;-71
2024/01/28 05:08:27;;;;;;;11.70;4.30;;;;;;;2.86;89.61;102332.86;112794;243;38306;-70
2024/01/28 05:11:01;;;;;;;9.10;3.80;;;;;;;2.85;89.76;102332.70;112850;243;38850;-70
2024/01/28 05:13:35;;;;;;;9.50;3.10;;;;;;;2.85;89.65;102337.85;112554;241;153882;-70
2024/01/28 05:16:09;;;;;;;9.20;3.90;;;;;;;2.85;89.87;102340.79;112827;243;39631;-69
2024/01/28 05:18:43;;;;;;;10.50;3.50;;;;;;;2.86;89.75;102343.58;112834;243;39101;-69
2024/01/28 05:21:18;;;;;;;8.80;3.60;;;;;;;2.90;89.88;102347.63;112871;243;39920;-69
2024/01/28 05:23:52;;;;;;;8.80;3.90;;;;;;;2.96;89.91;102341.57;112833;243;38690;-69
2024/01/28 05:26:26;;;;;;;10.00;4.30;;;;;;;2.98;89.93;102347.84;112659;241;153996;-70
2024/01/28 05:29:05;;;;;;;7.10;3.50;;;;;;;3.00;89.98;102351.33;112855;243;39421;-70
2024/01/28 05:31:38;;;;;;;9.60;3.90;;;;;;;2.99;89.99;102351.13;112602;241;154249;-70
2024/01/28 05:34:12;;;;;;;12.20;4.00;;;;;;;2.99;90.27;102351.13;112824;243;40152;-69
2024/01/28 05:36:50;;;;;;;12.80;4.50;;;;;;;3.02;90.48;102353.79;112730;241;154852;-69
2024/01/28 05:39:24;;;;;;;10.40;3.80;;;;;;;3.08;90.59;102353.60;112820;243;39465;-69
2024/01/28 05:41:58;;;;;;;9.70;3.80;;;;;;;3.13;90.58;102351.65;112833;243;38581;-70
2024/01/28 05:44:31;;;;;;;7.70;3.30;;;;;;;3.18;90.64;102354.52;112696;243;38634;-70
2024/01/28 05:47:05;;;;;;;9.10;3.70;;;;;;;3.23;90.71;102356.72;112857;243;38423;-70
2024/01/28 05:49:39;;;;;;;8.30;3.70;;;;;;;3.29;90.85;102359.63;112723;241;153892;-70
2024/01/28 05:52:15;;;;;;;12.80;3.70;;;;;;;3.31;90.82;102357.09;112795;243;38625;-70
2024/01/28 05:54:49;;;;;;;7.90;3.30;;;;;;;3.34;90.64;102365.26;112673;241;155020;-70
2024/01/28 05:57:23;;;;;;;6.60;3.00;;;;;;;3.37;90.50;102365.67;112738;243;38261;-70
2024/01/28 05:59:57;;;;;;;7.90;3.90;;;;;;;3.38;90.21;102371.73;112914;243;38391;-70
2024/01/28 06:02:31;;;;;;;10.50;4.30;;;;;;;3.37;90.29;102375.52;112687;242;38414;-71
2024/01/28 06:05:05;;;;;;;8.00;3.60;;;;;;;3.37;90.34;102374.65;112868;243;38418;-70
2024/01/28 06:07:39;;;;;;;12.90;4.50;;;;;;;3.36;90.54;102379.11;112563;242;153505;-70
2024/01/28 06:10:14;;;;;;;8.20;3.80;;;;;;;3.35;90.40;102383.77;112811;243;38890;-70
2024/01/28 06:12:48;;;;;;;7.50;3.80;;;;;;;3.33;90.41;102383.19;112672;241;154586;-70
2024/01/28 06:15:22;;;;;;;8.80;3.50;;;;;;;3.34;90.38;102386.48;112734;243;38514;-72
2024/01/28 06:17:56;;;;;;;8.10;4.20;;;;;;;3.33;90.26;102388.55;112735;243;38619;-71
2024/01/28 06:20:35;;;;;;;9.90;3.90;;;;;;;3.33;90.25;102393.89;112668;242;38488;-71
2024/01/28 06:23:09;;;;;;;10.00;4.00;;;;;;;3.33;90.51;102400.43;112872;243;39162;-71
2024/01/28 06:25:43;;;;;;;9.80;5.10;;;;;;;3.32;90.56;102403.88;112032;241;910447;-71
2024/01/28 06:28:17;;;;;;;11.70;5.30;;;;;;;3.33;90.92;102393.89;112833;243;38427;-72
2024/01/28 06:30:51;;;;;;;9.50;4.90;;;;;;;3.36;91.04;102391.55;112870;243;38255;-71
2024/01/28 06:33:25;;;;;;;8.60;4.50;;;;;;;3.39;91.00;102392.45;112843;243;40067;-71
2024/01/28 06:35:59;;;;;;;8.70;4.10;;;;;;;3.44;91.16;102398.29;112873;243;38899;-71
2024/01/28 06:38:33;;;;;;;11.50;4.50;;;;;;;3.50;91.35;102405.50;112567;241;154546;-71
2024/01/28 06:41:07;;;;;;;10.40;4.80;;;;;;;3.52;91.45;102407.80;112850;243;38423;-70
2024/01/28 06:43:41;;;;;;;7.80;4.00;;;;;;;3.49;91.00;102408.41;112664;241;154023;-70
2024/01/28 06:46:16;;;;;;;8.70;4.40;;;;;;;3.50;91.17;102406.55;112856;243;38673;-71
2024/01/28 06:48:50;;;;;;;11.40;4.30;;;;;;;3.50;90.96;102408.27;112528;241;175056;-71
2024/01/28 06:51:24;;;;;;;6.20;3.50;;;;;;;3.50;90.93;102408.80;112721;243;38621;-70
2024/01/28 06:53:58;;;;;;;8.70;4.40;;;;;;;3.52;91.12;102408.99;112900;243;38361;-70
2024/01/28 06:56:32;;;;;;;7.20;4.70;;;;;;;3.51;90.95;102415.19;112790;240;153634;-71
2024/01/28 06:59:07;;;;;;;6.10;4.10;;;;;;;3.47;91.01;102415.44;112869;243;39223;-71
2024/01/28 07:01:41;;;;;;;8.20;4.00;;;;;;;3.49;91.50;102413.76;112620;241;155220;-72
2024/01/28 07:04:16;;;;;;;6.00;3.90;;;;;;;3.54;91.69;102414.75;112831;243;38954;-71
2024/01/28 07:06:50;;;;;;;8.10;4.50;;;;;;;3.56;91.49;102421.70;112729;240;154630;-70
2024/01/28 07:09:24;;;;;;;7.00;4.70;;;;;;;3.58;91.56;102425.89;112868;242;38287;-70
2024/01/28 07:11:58;;;;;;;8.00;5.80;;;;;;;3.60;91.40;102426.44;112828;243;39793;-70
2024/01/28 07:14:32;;;;;;;14.60;8.70;;;;;;;3.61;91.67;102427.87;112530;241;153415;-70
2024/01/28 07:17:07;;;;;;;13.90;9.60;;;;;;;3.60;91.51;102433.53;112833;243;38330;-70
2024/01/28 07:19:41;;;;;;;13.30;9.40;;;;;;;3.62;91.71;102433.05;112633;241;154571;-71
2024/01/28 07:22:16;;;;;;;16.70;12.80;;;;;;;3.69;91.99;102431.30;112825;243;39771;-71
2024/01/28 07:24:50;;;;;;;14.40;9.40;;;;;;;3.76;92.09;102438.55;112710;241;155056;-70
2024/01/28 07:27:24;;;;;;;11.90;8.30;;;;;;;3.82;92.11;102443.36;112103;243;907708;-70
2024/01/28 07:29:58;;;;;;;15.50;9.40;;;;;;;3.87;92.18;102445.72;112850;243;38643;-70
2024/01/28 07:32:32;;;;;;;11.50;7.70;;;;;;;3.91;92.16;102440.11;112727;240;154387;-70
2024/01/28 07:35:06;;;;;;;12.70;7.70;;;;;;;3.97;92.39;102436.61;112850;243;38568;-70
2024/01/28 07:37:41;;;;;;;8.60;5.90;;;;;;;4.00;92.40;102437.04;112607;243;154755;-70
2024/01/28 07:40:15;;;;;;;9.90;5.60;;;;;;;4.03;92.19;102436.56;112813;243;39831;-70
2024/01/28 07:42:49;;;;;;;9.30;6.00;;;;;;;4.06;91.95;102431.29;112739;240;154422;-70
2024/01/28 07:45:23;;;;;;;10.60;6.30;;;;;;;4.13;92.34;102434.02;112882;242;38513;-70
2024/01/28 07:47:58;;;;;;;9.40;6.70;;;;;;;4.38;93.49;102433.52;112867;243;38235;-70
2024/01/28 07:50:32;;;;;;;10.70;7.10;;;;;;;4.61;94.31;102436.06;112514;241;154464;-70
2024/01/28 07:53:06;;;;;;;9.40;6.80;;;;;;;5.13;95.95;102436.48;112868;243;38334;-70
2024/01/28 07:55:40;;;;;;;9.50;6.50;;;;;;;5.38;94.73;102439.70;112692;241;154001;-70
2024/01/28 07:58:14;;;;;;;7.80;5.80;;;;;;;5.48;93.24;102438.48;112836;243;38744;-70
2024/01/28 08:00:48;;;;;;;7.40;5.70;;;;;;;5.56;92.65;102444.33;112873;243;38389;-70
2024/01/28 08:03:22;;;;;;;7.40;5.40;;;;;;;5.82;92.70;102444.54;112732;243;190741;-71
2024/01/28 08:05:57;;;;;;;6.80;4.20;;;;;;;6.22;93.17;102439.23;112830;243;38249;-70
2024/01/28 08:08:31;;;;;;;8.50;5.50;;;;;;;6.50;92.08;102440.80;112859;243;38529;-70
2024/01/28 08:11:05;;;;;;;7.50;4.30;;;;;;;6.55;90.25;102439.46;112892;243;39730;-71
2024/01/28 08:13:39;;;;;;;9.10;5.20;;;;;;;6.57;89.07;102449.73;112619;241;154231;-71
2024/01/28 08:16:15;;;;;;;7.90;5.40;;;;;;;6.57;88.68;102446.09;112825;243;38258;-71
2024/01/28 08:18:52;;;;;;;8.00;4.30;;;;;;;6.62;88.31;102443.90;112730;241;153844;-70
2024/01/28 08:21:26;;;;;;;7.50;4.20;;;;;;;6.60;87.80;102441.96;112768;243;39245;-72
2024/01/28 08:24:07;;;;;;;6.80;3.60;;;;;;;6.54;87.33;102446.73;112893;243;38489;-70
2024/01/28 08:26:42;;;;;;;7.70;4.10;;;;;;;6.44;86.78;102453.39;112524;241;154596;-70
2024/01/28 08:29:16;;;;;;;5.70;2.70;;;;;;;6.38;86.54;102456.77;112869;243;39875;-70
2024/01/28 08:31:50;;;;;;;6.20;3.70;;;;;;;6.32;86.35;102458.42;112667;241;155100;-70
2024/01/28 08:34:24;;;;;;;8.00;4.10;;;;;;;6.25;86.30;102458.86;112863;243;39460;-71
2024/01/28 08:36:58;;;;;;;7.10;4.20;;;;;;;6.19;86.35;102463.98;112658;241;154784;-71
2024/01/28 08:39:31;;;;;;;8.90;5.20;;;;;;;6.14;86.36;102465.31;112720;243;38881;-71
2024/01/28 08:42:06;;;;;;;9.30;5.20;;;;;;;6.11;86.80;102468.05;112657;243;38060;-71
2024/01/28 08:44:39;;;;;;;8.90;5.30;;;;;;;6.11;87.44;102466.81;112565;241;154760;-71
2024/01/28 08:47:14;;;;;;;8.50;4.80;;;;;;;6.16;87.82;102467.58;112860;242;39490;-71
2024/01/28 08:49:50;;;;;;;5.90;3.60;;;;;;;6.28;88.49;102469.12;112705;241;154710;-71
2024/01/28 08:52:26;;;;;;;3.80;2.70;;;;;;;6.56;88.84;102473.30;112863;243;38243;-70
2024/01/28 08:55:00;;;;;;;5.80;3.60;;;;;;;6.89;89.29;102473.00;112727;241;154796;-72
2024/01/28 08:57:34;;;;;;;4.50;2.60;;;;;;;7.03;88.23;102471.05;112822;243;39535;-72
2024/01/28 09:00:13;;;;;;;6.90;2.60;;;;;;;7.14;87.74;102478.97;112665;243;39820;-72
2024/01/28 09:02:47;;;;;;;5.40;2.60;;;;;;;7.13;86.49;102481.92;112661;241;153697;-72
2024/01/28 09:05:21;;;;;;;4.20;2.30;;;;;;;7.07;85.83;102480.13;112829;243;39486;-72
2024/01/28 09:07:58;;;;;;;3.90;2.50;;;;;;;7.02;85.93;102482.50;112808;243;38324;-72
2024/01/28 09:10:32;;;;;;;3.50;2.70;;;;;;;6.98;85.16;102486.27;112866;243;39642;-72
2024/01/28 09:13:07;;;;;;;4.90;3.00;;;;;;;6.89;85.41;102492.94;112648;243;154083;-72
2024/01/28 09:15:42;;;;;;;5.50;2.80;;;;;;;6.87;85.35;102496.21;112546;243;174799;-71
2024/01/28 09:18:16;;;;;;;4.80;2.30;;;;;;;6.86;85.52;102497.42;112839;243;38655;-71
2024/01/28 09:20:51;;;;;;;4.60;2.60;;;;;;;6.85;85.43;102493.77;112859;243;38249;-72
2024/01/28 09:23:24;;;;;;;5.20;3.00;;;;;;;6.83;85.51;102497.03;112864;243;40004;-71
2024/01/28 09:25:58;;;;;;;5.40;3.30;;;;;;;6.84;85.57;102489.39;112690;241;153648;-71
2024/01/28 09:28:32;;;;;;;5.50;2.90;;;;;;;6.84;85.64;102488.02;112788;243;39992;-71
2024/01/28 09:31:09;;;;;;;4.80;3.20;;;;;;;6.83;85.70;102488.19;112707;241;154251;-72
2024/01/28 09:33:43;;;;;;;4.00;2.80;;;;;;;6.78;85.39;102491.77;112704;243;39913;-72
2024/01/28 09:36:17;;;;;;;3.20;2.40;;;;;;;6.73;84.88;102490.50;112838;243;39906;-71
2024/01/28 09:38:52;;;;;;;5.10;2.20;;;;;;;6.68;85.10;102488.88;112684;241;154255;-70
2024/01/28 09:41:29;;;;;;;4.00;2.60;;;;;;;6.74;85.53;102496.06;112838;243;38398;-71
2024/01/28 09:44:03;;;;;;;8.20;3.10;;;;;;;6.80;85.76;102495.79;112533;242;154878;-71
2024/01/28 09:46:38;;;;;;;5.60;2.90;;;;;;;6.83;85.71;102494.26;112815;243;39449;-71
2024/01/28 09:49:12;;;;;;;4.90;2.90;;;;;;;6.84;85.71;102493.05;112739;241;154075;-70
2024/01/28 09:51:46;;;;;;;3.90;2.50;;;;;;;6.85;85.84;102490.82;112678;243;172270;-70
2024/01/28 09:54:20;;;;;;;4.50;2.80;;;;;;;6.89;85.68;102489.99;112834;243;38516;-70
2024/01/28 09:56:54;;;;;;;5.60;3.00;;;;;;;6.92;85.50;102495.05;112536;241;155391;-69
2024/01/28 09:59:29;;;;;;;5.80;3.20;;;;;;;6.97;85.58;102497.89;112864;243;38320;-70
2024/01/28 10:02:04;;;;;;;4.90;3.20;;;;;;;7.00;85.27;102499.67;112793;240;153927;-71
2024/01/28 10:04:39;;;;;;;5.00;2.80;;;;;;;6.98;84.88;102497.38;112882;242;38392;-70
2024/01/28 10:07:15;;;;;;;5.10;2.90;;;;;;;6.94;84.61;102503.76;112694;241;154238;-70
2024/01/28 10:09:50;;;;;;;4.40;3.10;;;;;;;6.88;84.53;102507.34;112745;243;38936;-70
2024/01/28 10:12:27;;;;;;;6.00;3.70;;;;;;;6.82;84.59;102508.83;112870;243;38392;-71
2024/01/28 10:15:11;;;;;;;5.10;3.40;;;;;;;6.80;84.58;102507.42;112647;242;39300;-70
2024/01/28 10:17:48;;;;;;;5.50;2.90;;;;;;;6.76;84.31;102506.84;112644;243;39438;-70
2024/01/28 10:20:23;;;;;;;4.20;2.60;;;;;;;6.79;84.91;102505.13;112609;241;154835;-70
2024/01/28 10:22:57;;;;;;;5.50;2.40;;;;;;;6.79;84.84;102506.52;112868;243;38766;-70
2024/01/28 10:25:31;;;;;;;3.50;2.30;;;;;;;6.78;84.97;102509.30;112723;241;153776;-70
2024/01/28 10:28:06;;;;;;;4.40;2.70;;;;;;;6.79;85.00;102501.83;112810;243;38869;-69
2024/01/28 10:30:48;;;;;;;5.00;3.50;;;;;;;6.81;84.78;102504.98;112722;240;155394;-70
2024/01/28 10:33:22;;;;;;;5.40;3.50;;;;;;;6.81;84.73;102505.52;112845;242;38234;-70
2024/01/28 10:36:01;;;;;;;5.80;2.50;;;;;;;6.82;84.63;102510.55;112879;243;38291;-71
2024/01/28 10:38:38;;;;;;;3.70;2.60;;;;;;;6.82;84.62;102512.30;112554;241;153914;-71
2024/01/28 10:41:12;;;;;;;2.90;2.30;;;;;;;6.80;84.76;102514.87;112837;243;38958;-70
2024/01/28 10:43:49;;;;;;;8.80;2.70;;;;;;;6.79;84.77;102515.19;112702;241;154817;-71
2024/01/28 10:46:27;;;;;;;3.50;1.80;;;;;;;6.80;84.59;102513.66;112808;243;38251;-70
2024/01/28 10:49:03;;;;;;;3.40;2.40;;;;;;;6.76;84.21;102517.77;112704;241;154636;-70
2024/01/28 10:51:39;;;;;;;2.90;2.10;;;;;;;6.75;84.40;102516.02;112735;243;39898;-71
2024/01/28 10:54:13;;;;;;;4.10;2.60;;;;;;;6.75;84.56;102513.95;112882;243;38533;-71
2024/01/28 10:56:47;;;;;;;3.60;2.20;;;;;;;6.75;84.54;102524.01;112739;240;153801;-71
2024/01/28 10:59:21;;;;;;;5.80;2.80;;;;;;;6.70;84.40;102524.30;112865;243;38705;-71
2024/01/28 11:01:55;;;;;;;4.20;2.80;;;;;;;6.66;84.38;102524.94;112623;241;153980;-71
2024/01/28 11:04:29;;;;;;;3.80;2.60;;;;;;;6.64;84.56;102525.41;112812;243;38890;-71
2024/01/28 11:07:06;;;;;;;10.00;6.10;;;;;;;6.66;84.36;102520.27;112797;240;155801;-71
2024/01/28 11:09:40;;;;;;;5.40;4.20;;;;;;;6.65;84.20;102520.77;112871;242;39840;-71
2024/01/28 11:12:14;;;;;;;5.30;2.40;;;;;;;6.67;84.35;102523.21;112832;243;38278;-72
2024/01/28 11:14:48;;;;;;;4.50;2.70;;;;;;;6.69;84.37;102529.30;112867;243;39806;-71
2024/01/28 11:17:23;;;;;;;4.60;2.50;;;;;;;6.68;84.33;102531.72;112789;243;39753;-71
2024/01/28 11:19:57;;;;;;;3.40;2.50;;;;;;;6.65;84.23;102529.60;112623;241;154194;-70
2024/01/28 11:22:31;;;;;;;5.90;4.00;;;;;;;6.63;84.43;102527.66;112759;243;38543;-70
2024/01/28 11:25:09;;;;;;;4.20;2.90;;;;;;;6.63;84.48;102535.13;112702;241;154583;-70
2024/01/28 11:27:44;;;;;;;3.80;2.80;;;;;;;6.62;84.27;102537.20;112775;243;38569;-70
2024/01/28 11:30:22;;;;;;;7.80;3.20;;;;;;;6.61;84.17;102536.67;112876;242;38952;-70
2024/01/28 11:33:07;;;;;;;4.80;3.30;;;;;;;6.63;84.26;102536.16;112542;241;153747;-70
2024/01/28 11:35:43;;;;;;;4.80;2.90;;;;;;;6.63;84.64;102539.80;112875;243;38701;-72
2024/01/28 11:38:24;;;;;;;5.00;2.90;;;;;;;6.64;84.42;102538.08;112651;241;154594;-71
2024/01/28 11:41:00;;;;;;;6.70;3.80;;;;;;;6.62;84.52;102535.11;112723;243;174794;-70
2024/01/28 11:43:34;;;;;;;5.80;2.70;;;;;;;6.59;84.13;102538.02;112834;243;38517;-70
2024/01/28 11:46:08;;;;;;;3.20;2.30;;;;;;;6.57;84.25;102544.08;112840;243;38327;-70
2024/01/28 11:48:43;;;;;;;3.50;2.40;;;;;;;6.58;84.38;102540.27;112849;243;39455;-70
2024/01/28 11:51:17;;;;;;;4.50;2.60;;;;;;;6.57;84.24;102537.31;112571;241;153582;-71
2024/01/28 11:53:51;;;;;;;6.20;3.00;;;;;;;6.57;84.42;102536.96;112829;243;38470;-72
2024/01/28 11:56:25;;;;;;;3.80;3.00;;;;;;;6.56;84.51;102535.91;112677;241;153850;-71
2024/01/28 11:58:59;;;;;;;5.20;3.30;;;;;;;6.55;84.54;102535.21;112849;243;38704;-71
2024/01/28 12:01:33;;;;;;;4.40;3.00;;;;;;;6.56;84.57;102537.98;112683;241;155021;-70